createdAt,value
2024-04-17T00:00:20.671Z,3.50
2024-04-17T00:02:46.978Z,3.38
2024-04-17T00:05:13.364Z,3.50
2024-04-17T00:07:39.797Z,3.40
2024-04-17T00:10:06.637Z,3.30
2024-04-17T00:12:32.937Z,3.40
2024-04-17T00:14:59.254Z,3.67
2024-04-17T00:17:25.607Z,3.38
2024-04-17T00:19:52.231Z,3.60
2024-04-17T00:22:18.722Z,3.35
2024-04-17T00:24:45.092Z,3.60
2024-04-17T00:27:11.481Z,3.30
2024-04-17T00:29:37.831Z,3.22
2024-04-17T00:32:06.791Z,3.38
2024-04-17T00:34:33.172Z,3.25
2024-04-17T00:36:59.579Z,3.28
2024-04-17T00:39:27.615Z,3.70
2024-04-17T00:41:54.367Z,3.72
2024-04-17T00:44:20.741Z,3.40
2024-04-17T00:46:47.146Z,3.53
2024-04-17T00:49:13.864Z,3.15
2024-04-17T00:51:41.263Z,3.97
2024-04-17T00:54:09.466Z,3.50
2024-04-17T00:56:36.289Z,3.55
2024-04-17T00:59:03.050Z,3.28
2024-04-17T01:01:29.480Z,3.40
2024-04-17T01:03:55.999Z,3.78
2024-04-17T01:06:22.742Z,3.55
2024-04-17T01:08:49.037Z,3.05
2024-04-17T01:11:15.392Z,3.40
2024-04-17T01:13:41.932Z,3.90
2024-04-17T01:16:08.580Z,3.85
2024-04-17T01:18:35.587Z,4.22
2024-04-17T01:21:05.107Z,4.35
2024-04-17T01:23:31.412Z,4.68
2024-04-17T01:25:57.824Z,5.20
2024-04-17T01:28:24.211Z,4.97
2024-04-17T01:30:50.527Z,5.80
2024-04-17T01:33:16.961Z,5.28
2024-04-17T01:35:43.357Z,4.53
2024-04-17T01:38:09.712Z,4.70
2024-04-17T01:40:36.099Z,4.93
2024-04-17T01:43:02.487Z,4.40
2024-04-17T01:45:29.001Z,4.30
2024-04-17T01:47:55.483Z,4.43
2024-04-17T01:50:31.267Z,3.90
2024-04-17T01:52:57.918Z,4.05
2024-04-17T01:55:24.534Z,4.07
2024-04-17T01:57:50.990Z,3.90
2024-04-17T02:00:17.393Z,3.92
2024-04-17T02:02:43.718Z,4.00
2024-04-17T02:05:10.454Z,4.25
2024-04-17T02:07:36.839Z,4.20
2024-04-17T02:10:03.390Z,4.10
2024-04-17T02:12:29.770Z,3.95
2024-04-17T02:14:56.124Z,3.55
2024-04-17T02:17:22.603Z,4.28
2024-04-17T02:19:49.049Z,4.25
2024-04-17T02:22:15.391Z,3.92
2024-04-17T02:24:41.770Z,4.00
2024-04-17T02:27:08.097Z,4.30
2024-04-17T02:29:34.428Z,4.28
2024-04-17T02:32:00.775Z,4.15
2024-04-17T02:34:27.179Z,4.43
2024-04-17T02:36:53.506Z,4.85
2024-04-17T02:39:20.200Z,4.13
2024-04-17T02:41:46.649Z,4.10
2024-04-17T02:44:13.003Z,4.40
2024-04-17T02:46:39.358Z,4.10
2024-04-17T02:49:05.745Z,4.18
2024-04-17T02:51:32.031Z,4.47
2024-04-17T02:53:58.368Z,4.07
2024-04-17T02:56:24.668Z,4.05
2024-04-17T02:58:51.244Z,4.22
2024-04-17T03:01:18.338Z,3.80
2024-04-17T03:03:44.757Z,4.05
2024-04-17T03:06:11.218Z,4.18
2024-04-17T03:08:37.536Z,4.68
2024-04-17T03:11:04.376Z,4.40
2024-04-17T03:13:31.323Z,5.05
2024-04-17T03:16:03.280Z,4.70
2024-04-17T03:18:30.499Z,4.50
2024-04-17T03:21:05.972Z,4.20
2024-04-17T03:23:32.331Z,4.30
2024-04-17T03:26:00.471Z,4.63
2024-04-17T03:28:27.068Z,4.38
2024-04-17T03:30:53.967Z,4.00
2024-04-17T03:33:20.722Z,3.97
2024-04-17T03:36:00.094Z,5.32
2024-04-17T03:38:27.406Z,4.57
2024-04-17T03:40:54.537Z,4.63
2024-04-17T03:43:21.207Z,5.28
2024-04-17T03:45:47.507Z,4.55
2024-04-17T03:48:15.434Z,4.95
2024-04-17T03:50:41.750Z,3.92
2024-04-17T03:53:08.043Z,4.30
2024-04-17T03:55:34.455Z,3.90
2024-04-17T03:58:00.758Z,4.38
2024-04-17T04:00:27.130Z,4.80
2024-04-17T04:02:53.500Z,4.15
2024-04-17T04:05:19.944Z,4.65
2024-04-17T04:07:46.291Z,4.38
2024-04-17T04:10:12.749Z,4.60
2024-04-17T04:12:39.081Z,4.43
2024-04-17T04:15:05.781Z,4.10
2024-04-17T04:17:32.290Z,4.78
2024-04-17T04:19:58.667Z,4.50
2024-04-17T04:22:24.993Z,4.50
2024-04-17T04:24:51.303Z,6.45
2024-04-17T04:27:17.616Z,5.20
2024-04-17T04:29:44.027Z,4.90
2024-04-17T04:32:10.373Z,5.93
2024-04-17T04:34:36.841Z,5.18
2024-04-17T04:37:03.249Z,5.50
2024-04-17T04:39:29.690Z,5.57
2024-04-17T04:41:56.083Z,6.07
2024-04-17T04:44:22.365Z,5.82
2024-04-17T04:46:48.985Z,5.97
2024-04-17T04:49:15.355Z,5.88
2024-04-17T04:51:41.676Z,6.05
2024-04-17T04:54:07.964Z,5.32
2024-04-17T04:56:34.391Z,6.07
2024-04-17T04:59:00.735Z,6.50
2024-04-17T05:01:27.260Z,6.82
2024-04-17T05:03:53.740Z,6.40
2024-04-17T05:06:20.205Z,6.32
2024-04-17T05:08:46.492Z,6.50
2024-04-17T05:11:13.451Z,6.53
2024-04-17T05:13:39.919Z,6.13
2024-04-17T05:16:09.176Z,5.30
2024-04-17T05:18:37.005Z,4.80
2024-04-17T05:21:03.330Z,4.28
2024-04-17T05:23:29.680Z,4.60
2024-04-17T05:25:56.095Z,3.85
2024-04-17T05:28:22.510Z,4.10
2024-04-17T05:30:58.183Z,4.38
2024-04-17T05:33:24.609Z,4.45
2024-04-17T05:35:51.030Z,4.10
2024-04-17T05:38:17.326Z,4.40
2024-04-17T05:40:47.366Z,4.45
2024-04-17T05:43:19.881Z,3.72
2024-04-17T05:45:46.923Z,3.95
2024-04-17T05:48:13.393Z,3.38
2024-04-17T05:50:40.268Z,3.72
2024-04-17T05:53:06.573Z,3.20
2024-04-17T05:55:35.414Z,3.70
2024-04-17T05:58:04.919Z,3.90
2024-04-17T06:00:31.318Z,3.67
2024-04-17T06:02:59.148Z,4.07
2024-04-17T06:05:28.024Z,3.63
2024-04-17T06:07:54.972Z,3.90
2024-04-17T06:10:21.468Z,3.92
2024-04-17T06:12:47.768Z,3.42
2024-04-17T06:15:14.072Z,3.72
2024-04-17T06:17:40.398Z,4.25
2024-04-17T06:20:07.115Z,4.13
2024-04-17T06:22:33.418Z,4.28
2024-04-17T06:24:59.852Z,3.65
2024-04-17T06:27:26.155Z,3.92
2024-04-17T06:29:52.433Z,3.97
2024-04-17T06:32:18.881Z,3.65
2024-04-17T06:34:45.328Z,3.90
2024-04-17T06:37:11.671Z,4.25
2024-04-17T06:39:38.069Z,4.07
2024-04-17T06:42:04.614Z,4.00
2024-04-17T06:44:30.925Z,4.30
2024-04-17T06:46:57.356Z,4.10
2024-04-17T06:49:24.251Z,4.00
2024-04-17T06:51:53.443Z,4.43
2024-04-17T06:54:19.725Z,4.13
2024-04-17T06:56:46.025Z,4.70
2024-04-17T06:59:12.366Z,4.30
2024-04-17T07:01:38.946Z,4.28
2024-04-17T07:04:05.923Z,4.10
2024-04-17T07:06:32.544Z,3.97
2024-04-17T07:08:59.212Z,4.47
2024-04-17T07:11:25.593Z,4.20
2024-04-17T07:13:51.964Z,4.70
2024-04-17T07:16:19.565Z,5.25
2024-04-17T07:18:47.088Z,4.43
2024-04-17T07:21:13.696Z,4.93
2024-04-17T07:23:40.233Z,4.22
2024-04-17T07:26:06.604Z,4.30
2024-04-17T07:28:32.998Z,4.22
2024-04-17T07:30:59.306Z,7.07
2024-04-17T07:33:25.660Z,4.57
2024-04-17T07:36:02.367Z,4.18
2024-04-17T07:38:29.799Z,4.93
2024-04-17T07:41:01.938Z,4.57
2024-04-17T07:43:33.098Z,4.57
2024-04-17T07:46:00.485Z,4.00
2024-04-17T07:48:27.028Z,3.60
2024-04-17T07:50:53.636Z,4.95
2024-04-17T07:53:19.918Z,5.05
2024-04-17T07:55:46.303Z,5.00
2024-04-17T07:58:12.641Z,4.07
2024-04-17T08:00:39.647Z,4.15
2024-04-17T08:03:06.108Z,4.85
2024-04-17T08:05:33.813Z,5.85
2024-04-17T08:08:00.526Z,4.10
2024-04-17T08:10:27.063Z,4.38
2024-04-17T08:13:09.290Z,4.13
2024-04-17T08:15:36.162Z,4.05
2024-04-17T08:18:02.670Z,4.25
2024-04-17T08:20:30.799Z,4.63
2024-04-17T08:22:57.310Z,4.13
2024-04-17T08:25:23.697Z,4.72
2024-04-17T08:27:50.006Z,4.22
2024-04-17T08:30:16.348Z,4.57
2024-04-17T08:32:44.707Z,4.68
2024-04-17T08:35:11.376Z,4.95
2024-04-17T08:37:38.215Z,4.45
2024-04-17T08:40:10.509Z,4.45
2024-04-17T08:42:37.850Z,4.28
2024-04-17T08:45:10.032Z,4.65
2024-04-17T08:47:43.712Z,4.50
2024-04-17T08:50:12.285Z,4.57
2024-04-17T08:52:39.864Z,4.15
2024-04-17T08:55:06.287Z,4.30
2024-04-17T08:57:33.294Z,4.13
2024-04-17T08:59:59.651Z,4.40
2024-04-17T09:02:28.357Z,4.22
2024-04-17T09:04:56.056Z,4.50
2024-04-17T09:07:22.801Z,5.20
2024-04-17T09:09:50.340Z,4.13
2024-04-17T09:12:16.819Z,5.05
2024-04-17T09:14:50.530Z,4.55
2024-04-17T09:17:22.709Z,5.20
2024-04-17T09:19:50.198Z,4.50
2024-04-17T09:22:16.762Z,4.03
2024-04-17T09:24:43.238Z,4.30
2024-04-17T09:27:16.558Z,4.68
2024-04-17T09:29:42.862Z,4.40
2024-04-17T09:32:16.789Z,4.20
2024-04-17T09:34:44.306Z,3.92
2024-04-17T09:37:11.541Z,4.25
2024-04-17T09:39:38.301Z,4.93
2024-04-17T09:42:09.075Z,4.60
2024-04-17T09:44:43.803Z,4.45
2024-04-17T09:47:14.204Z,4.70
2024-04-17T09:49:47.178Z,4.97
2024-04-17T09:52:19.552Z,5.00
2024-04-17T09:54:47.095Z,4.50
2024-04-17T09:57:13.868Z,4.15
2024-04-17T09:59:41.278Z,4.47
2024-04-17T10:02:13.112Z,4.32
2024-04-17T10:04:41.846Z,4.22
2024-04-17T10:07:11.040Z,4.85
2024-04-17T10:09:38.557Z,5.20
2024-04-17T10:12:06.003Z,5.13
2024-04-17T10:14:32.828Z,4.47
2024-04-17T10:16:59.322Z,9.50
2024-04-17T10:19:25.714Z,5.43
2024-04-17T10:21:56.881Z,4.35
2024-04-17T10:24:23.284Z,5.20
2024-04-17T10:26:52.100Z,4.20
2024-04-17T10:29:31.716Z,3.70
2024-04-17T10:31:58.369Z,3.97
2024-04-17T10:34:31.621Z,3.70
2024-04-17T10:37:03.706Z,3.70
2024-04-17T10:39:31.621Z,4.68
2024-04-17T10:42:01.876Z,3.20
2024-04-17T10:44:28.304Z,12.82
2024-04-17T10:47:03.895Z,4.43
2024-04-17T10:49:30.294Z,4.38
2024-04-17T10:51:57.131Z,4.30
2024-04-17T10:54:24.362Z,4.30
2024-04-17T10:56:53.506Z,3.63
2024-04-17T10:59:27.349Z,3.92
2024-04-17T11:01:53.933Z,3.95
2024-04-17T11:04:20.363Z,3.72
2024-04-17T11:06:50.028Z,4.10
2024-04-17T11:09:16.451Z,3.53
2024-04-17T11:11:46.510Z,4.38
2024-04-17T11:14:16.773Z,3.75
2024-04-17T11:16:47.376Z,4.03
2024-04-17T11:19:15.478Z,4.43
2024-04-17T11:21:41.781Z,4.05
2024-04-17T11:24:08.201Z,4.13
2024-04-17T11:26:34.535Z,4.85
2024-04-17T11:29:01.023Z,4.88
2024-04-17T11:31:27.571Z,4.43
2024-04-17T11:33:53.923Z,4.15
2024-04-17T11:36:20.741Z,3.72
2024-04-17T11:38:47.878Z,4.32
2024-04-17T11:41:16.864Z,4.30
2024-04-17T11:43:44.923Z,4.05
2024-04-17T11:46:11.822Z,4.22
2024-04-17T11:48:39.542Z,4.30
2024-04-17T11:51:06.624Z,4.00
2024-04-17T11:53:32.945Z,3.95
2024-04-17T11:55:59.350Z,4.18
2024-04-17T11:58:25.746Z,3.40
2024-04-17T12:00:52.180Z,3.72
2024-04-17T12:03:21.177Z,3.90
2024-04-17T12:05:50.142Z,3.92
2024-04-17T12:08:17.961Z,3.78
2024-04-17T12:10:44.638Z,3.55
2024-04-17T12:13:11.011Z,3.30
2024-04-17T12:15:37.418Z,3.55
2024-04-17T12:18:03.796Z,2.75
2024-04-17T12:20:30.086Z,3.33
2024-04-17T12:22:56.823Z,2.80
2024-04-17T12:25:41.986Z,3.30
2024-04-17T12:28:08.348Z,3.75
2024-04-17T12:30:34.635Z,2.67
2024-04-17T12:33:01.058Z,2.85
2024-04-17T12:35:27.421Z,3.65
2024-04-17T12:37:54.696Z,2.75
2024-04-17T12:40:21.051Z,3.40
2024-04-17T12:42:47.360Z,2.70
2024-04-17T12:45:15.164Z,2.63
2024-04-17T12:47:41.591Z,3.67
2024-04-17T12:50:08.153Z,2.42
2024-04-17T12:52:36.792Z,3.10
2024-04-17T12:55:03.172Z,2.42
2024-04-17T12:57:30.042Z,2.90
2024-04-17T12:59:56.339Z,2.40
2024-04-17T13:02:28.128Z,2.70
2024-04-17T13:04:57.356Z,3.13
2024-04-17T13:07:23.680Z,3.13
2024-04-17T13:09:50.016Z,2.47
2024-04-17T13:12:16.354Z,3.10
2024-04-17T13:14:42.757Z,3.97
2024-04-17T13:17:09.139Z,2.85
2024-04-17T13:19:35.548Z,3.35
2024-04-17T13:22:01.923Z,2.70
2024-04-17T13:24:28.323Z,2.80
2024-04-17T13:26:54.652Z,2.70
2024-04-17T13:29:21.095Z,2.75
2024-04-17T13:31:47.480Z,2.90
2024-04-17T13:34:13.829Z,2.55
2024-04-17T13:36:40.130Z,2.58
2024-04-17T13:39:06.447Z,2.83
2024-04-17T13:41:32.791Z,2.70
2024-04-17T13:43:59.120Z,2.85
2024-04-17T13:46:25.839Z,2.78
2024-04-17T13:48:52.305Z,2.83
2024-04-17T13:51:19.695Z,2.75
2024-04-17T13:53:52.142Z,3.10
2024-04-17T13:56:18.461Z,2.88
2024-04-17T13:58:45.019Z,2.97
2024-04-17T14:01:11.442Z,2.65
2024-04-17T14:03:38.671Z,3.65
2024-04-17T14:06:06.211Z,3.55
2024-04-17T14:08:32.970Z,2.55
2024-04-17T14:11:01.618Z,2.83
2024-04-17T14:13:29.306Z,2.40
2024-04-17T14:15:57.558Z,2.88
2024-04-17T14:18:25.757Z,3.08
2024-04-17T14:20:52.750Z,3.60
2024-04-17T14:23:20.915Z,2.85
2024-04-17T14:25:58.199Z,2.65
2024-04-17T14:28:26.002Z,3.15
2024-04-17T14:30:56.746Z,3.47
2024-04-17T14:33:23.592Z,3.15
2024-04-17T14:35:50.014Z,3.75
2024-04-17T14:38:16.913Z,2.97
2024-04-17T14:40:43.582Z,2.95
2024-04-17T14:43:10.050Z,3.00
2024-04-17T14:45:36.488Z,3.03
2024-04-17T14:48:02.862Z,2.80
2024-04-17T14:50:29.442Z,2.97
2024-04-17T14:52:56.648Z,3.10
2024-04-17T14:55:23.030Z,2.88
2024-04-17T14:57:49.857Z,3.25
2024-04-17T15:00:16.307Z,3.30
2024-04-17T15:02:43.063Z,2.90
2024-04-17T15:05:09.416Z,3.00
2024-04-17T15:07:35.933Z,3.13
2024-04-17T15:10:02.342Z,3.15
2024-04-17T15:12:28.733Z,3.38
2024-04-17T15:14:55.140Z,3.22
2024-04-17T15:17:21.547Z,3.63
2024-04-17T15:19:47.925Z,2.88
2024-04-17T15:22:14.889Z,3.65
2024-04-17T15:24:41.339Z,2.90
2024-04-17T15:27:07.738Z,3.22
2024-04-17T15:29:34.266Z,3.50
2024-04-17T15:32:00.687Z,3.47
2024-04-17T15:34:27.305Z,2.95
2024-04-17T15:36:53.598Z,3.13
2024-04-17T15:39:24.724Z,3.88
2024-04-17T15:41:54.620Z,3.55
2024-04-17T15:44:20.907Z,4.32
2024-04-17T15:46:47.251Z,3.55
2024-04-17T15:49:13.690Z,3.40
2024-04-17T15:51:40.804Z,3.83
2024-04-17T15:54:07.434Z,3.40
2024-04-17T15:56:33.723Z,4.28
2024-04-17T15:59:00.062Z,3.35
2024-04-17T16:01:26.459Z,3.35
2024-04-17T16:03:53.845Z,3.42
2024-04-17T16:06:22.524Z,3.40
2024-04-17T16:08:50.603Z,3.45
2024-04-17T16:11:17.202Z,3.85
2024-04-17T16:13:43.746Z,3.20
2024-04-17T16:16:11.270Z,3.60
2024-04-17T16:18:39.699Z,3.47
2024-04-17T16:21:19.337Z,3.03
2024-04-17T16:23:46.287Z,3.55
2024-04-17T16:26:13.763Z,3.60
2024-04-17T16:28:43.611Z,3.92
2024-04-17T16:31:20.308Z,3.53
2024-04-17T16:33:48.351Z,3.78
2024-04-17T16:36:16.584Z,4.88
2024-04-17T16:38:43.381Z,3.85
2024-04-17T16:41:11.289Z,3.58
2024-04-17T16:43:38.483Z,4.15
2024-04-17T16:46:12.256Z,3.70
2024-04-17T16:48:40.627Z,3.40
2024-04-17T16:51:08.470Z,3.80
2024-04-17T16:53:35.639Z,4.85
2024-04-17T16:56:04.575Z,4.43
2024-04-17T16:58:33.090Z,3.60
2024-04-17T17:01:06.611Z,3.83
2024-04-17T17:03:33.641Z,3.42
2024-04-17T17:06:01.143Z,3.58
2024-04-17T17:08:28.090Z,3.35
2024-04-17T17:10:55.324Z,3.55
2024-04-17T17:13:22.033Z,4.07
2024-04-17T17:15:49.017Z,3.53
2024-04-17T17:18:15.630Z,3.90
2024-04-17T17:20:42.254Z,4.53
2024-04-17T17:23:08.796Z,3.95
2024-04-17T17:25:40.187Z,3.55
2024-04-17T17:28:06.676Z,3.70
2024-04-17T17:30:36.245Z,3.83
2024-04-17T17:33:03.329Z,3.70
2024-04-17T17:35:29.697Z,3.88
2024-04-17T17:37:56.294Z,2.85
2024-04-17T17:40:22.621Z,3.50
2024-04-17T17:42:49.555Z,3.33
2024-04-17T17:45:17.171Z,3.95
2024-04-17T17:47:45.605Z,3.40
2024-04-17T17:50:12.105Z,3.35
2024-04-17T17:52:38.406Z,3.10
2024-04-17T17:55:04.967Z,3.30
2024-04-17T17:57:31.342Z,3.38
2024-04-17T17:59:58.241Z,3.10
2024-04-17T18:02:26.605Z,3.15
2024-04-17T18:04:52.956Z,3.22
2024-04-17T18:07:19.455Z,2.83
2024-04-17T18:09:45.804Z,3.13
2024-04-17T18:12:12.211Z,3.28
2024-04-17T18:14:38.919Z,3.30
2024-04-17T18:17:05.488Z,3.55
2024-04-17T18:19:31.919Z,3.55
2024-04-17T18:21:58.254Z,2.95
2024-04-17T18:24:24.618Z,3.20
2024-04-17T18:26:50.959Z,3.10
2024-04-17T18:29:17.289Z,3.28
2024-04-17T18:31:43.675Z,3.28
2024-04-17T18:34:10.361Z,3.33
2024-04-17T18:36:37.508Z,4.07
2024-04-17T18:39:03.953Z,4.38
2024-04-17T18:41:30.798Z,4.72
2024-04-17T18:44:00.406Z,4.80
2024-04-17T18:46:28.642Z,4.75
2024-04-17T18:48:57.519Z,4.25
2024-04-17T18:51:24.737Z,4.00
2024-04-17T18:53:52.008Z,3.70
2024-04-17T18:56:21.218Z,3.60
2024-04-17T18:58:48.769Z,4.22
2024-04-17T19:01:18.347Z,4.10
2024-04-17T19:03:45.372Z,3.70
2024-04-17T19:06:18.507Z,4.43
2024-04-17T19:08:44.983Z,3.90
2024-04-17T19:11:15.352Z,4.47
2024-04-17T19:13:41.860Z,3.80
2024-04-17T19:16:20.232Z,3.70
2024-04-17T19:18:49.676Z,3.72
2024-04-17T19:21:18.119Z,3.72
2024-04-17T19:23:46.997Z,3.30
2024-04-17T19:26:14.410Z,3.60
2024-04-17T19:28:41.052Z,3.10
2024-04-17T19:31:08.640Z,3.20
2024-04-17T19:33:36.033Z,3.17
2024-04-17T19:36:12.748Z,3.60
2024-04-17T19:38:44.040Z,3.50
2024-04-17T19:41:10.836Z,3.80
2024-04-17T19:43:37.906Z,4.28
2024-04-17T19:46:09.508Z,3.28
2024-04-17T19:48:41.411Z,4.10
2024-04-17T19:51:08.422Z,3.50
2024-04-17T19:53:34.739Z,3.75
2024-04-17T19:56:01.646Z,3.92
2024-04-17T19:58:28.203Z,3.50
2024-04-17T20:00:59.097Z,4.40
2024-04-17T20:03:25.917Z,4.05
2024-04-17T20:05:56.203Z,3.30
2024-04-17T20:08:23.350Z,3.53
2024-04-17T20:10:50.058Z,3.97
2024-04-17T20:13:18.910Z,4.65
2024-04-17T20:15:46.530Z,3.83
2024-04-17T20:18:16.806Z,4.32
2024-04-17T20:20:56.731Z,3.47
2024-04-17T20:23:23.405Z,3.55
2024-04-17T20:26:01.559Z,3.47
2024-04-17T20:28:28.491Z,3.55
2024-04-17T20:30:54.854Z,3.25
2024-04-17T20:33:21.323Z,3.10
2024-04-17T20:35:47.685Z,3.47
2024-04-17T20:38:14.066Z,2.75
2024-04-17T20:40:40.386Z,2.80
2024-04-17T20:43:06.695Z,3.03
2024-04-17T20:45:33.531Z,2.63
2024-04-17T20:48:00.085Z,2.83
2024-04-17T20:50:26.630Z,2.33
2024-04-17T20:52:52.945Z,2.83
2024-04-17T20:55:19.340Z,2.47
2024-04-17T20:57:45.677Z,2.58
2024-04-17T21:00:14.705Z,2.40
2024-04-17T21:02:41.411Z,2.38
2024-04-17T21:05:08.258Z,2.63
2024-04-17T21:07:35.380Z,2.22
2024-04-17T21:10:01.757Z,2.63
2024-04-17T21:12:28.219Z,2.55
2024-04-17T21:14:54.515Z,3.15
2024-04-17T21:17:20.883Z,3.13
2024-04-17T21:19:47.245Z,3.20
2024-04-17T21:22:13.824Z,3.45
2024-04-17T21:24:40.197Z,4.07
2024-04-17T21:27:06.921Z,4.25
2024-04-17T21:29:33.331Z,4.05
2024-04-17T21:32:05.822Z,3.85
2024-04-17T21:34:33.263Z,3.70
2024-04-17T21:37:02.686Z,3.22
2024-04-17T21:39:29.750Z,3.33
2024-04-17T21:41:56.529Z,3.90
2024-04-17T21:44:22.922Z,4.40
2024-04-17T21:46:51.651Z,4.22
2024-04-17T21:49:18.054Z,3.70
2024-04-17T21:51:44.479Z,4.13
2024-04-17T21:54:11.236Z,4.15
2024-04-17T21:56:37.571Z,4.05
2024-04-17T21:59:03.944Z,4.43
2024-04-17T22:01:31.791Z,4.50
2024-04-17T22:03:59.047Z,4.50
2024-04-17T22:06:25.517Z,4.50
2024-04-17T22:08:51.965Z,4.55
2024-04-17T22:11:18.276Z,4.68
2024-04-17T22:13:44.608Z,5.75
2024-04-17T22:16:11.012Z,5.00
2024-04-17T22:18:37.402Z,4.88
2024-04-17T22:21:03.782Z,4.93
2024-04-17T22:23:30.137Z,5.13
2024-04-17T22:25:56.432Z,4.78
2024-04-17T22:28:22.772Z,4.97
2024-04-17T22:30:49.321Z,4.90
2024-04-17T22:33:15.807Z,4.10
2024-04-17T22:35:42.174Z,4.45
2024-04-17T22:38:08.615Z,4.40
2024-04-17T22:40:34.967Z,3.88
2024-04-17T22:43:01.312Z,4.13
2024-04-17T22:45:27.642Z,4.00
2024-04-17T22:47:54.027Z,3.55
2024-04-17T22:50:20.387Z,3.60
2024-04-17T22:52:46.696Z,3.40
2024-04-17T22:55:13.321Z,3.53
2024-04-17T22:57:39.843Z,2.97
2024-04-17T23:00:07.584Z,3.45
2024-04-17T23:02:34.070Z,2.83
2024-04-17T23:05:00.416Z,2.55
2024-04-17T23:07:26.759Z,2.72
2024-04-17T23:09:53.175Z,2.38
2024-04-17T23:12:19.506Z,2.13
2024-04-17T23:14:45.855Z,2.55
2024-04-17T23:17:12.243Z,2.22
2024-04-17T23:19:38.607Z,2.00
2024-04-17T23:22:05.071Z,1.90
2024-04-17T23:24:31.406Z,1.77
2024-04-17T23:26:57.777Z,1.77
2024-04-17T23:29:24.314Z,2.10
2024-04-17T23:31:50.709Z,1.63
2024-04-17T23:34:17.155Z,1.70
2024-04-17T23:36:43.572Z,1.83
2024-04-17T23:39:09.977Z,1.90
2024-04-17T23:41:36.290Z,1.95
2024-04-17T23:44:02.567Z,1.60
2024-04-17T23:46:29.451Z,1.85
2024-04-17T23:48:55.886Z,1.70
2024-04-17T23:51:22.198Z,1.60
2024-04-17T23:53:48.520Z,2.22
2024-04-17T23:56:16.097Z,1.80
2024-04-17T23:58:42.428Z,2.05
